Time;durP1;ratioP1;P1;durP2;ratioP2;P2;SDS_P1;SDS_P2;PMS_P1;PMS_P2;Temp;Humidity;BMP_temperature;BMP_pressure;BME280_temperature;BME280_humidity;BME280_pressure;Samples;Min_cycle;Max_cycle;Signal;HPM_P1;HPM_P2
2022/01/13 00:01:52;;;;;;;0.70;0.60;;;6.70;99.90;;;;;;4942574;28;20460;-90
2022/01/13 00:04:18;;;;;;;0.70;0.60;;;6.70;99.90;;;;;;4961415;28;20509;-88
2022/01/13 00:06:44;;;;;;;0.70;0.70;;;6.70;99.90;;;;;;4943723;28;20812;-89
2022/01/13 00:09:10;;;;;;;0.70;0.60;;;6.70;99.90;;;;;;4969931;28;20447;-88
2022/01/13 00:11:36;;;;;;;1.27;1.17;;;6.70;99.90;;;;;;4938711;28;22196;-89
2022/01/13 00:16:43;;;;;;;0.90;0.90;;;6.70;99.90;;;;;;4955078;28;20473;-89
2022/01/13 00:21:42;;;;;;;1.10;0.97;;;6.70;99.90;;;;;;4972630;28;20463;-89
2022/01/13 00:24:12;;;;;;;0.80;0.80;;;6.70;99.90;;;;;;4938615;28;20446;-89
2022/01/13 00:26:38;;;;;;;0.70;0.60;;;6.70;99.90;;;;;;4940218;28;20849;-88
2022/01/13 00:29:04;;;;;;;1.87;0.93;;;6.70;99.90;;;;;;4940491;28;20440;-89
2022/01/13 00:31:34;;;;;;;2.30;1.57;;;6.70;99.90;;;;;;4958685;28;21016;-88
2022/01/13 00:34:05;;;;;;;0.80;0.80;;;6.60;99.90;;;;;;4968538;28;20201;-89
2022/01/13 00:36:38;;;;;;;0.70;0.60;;;6.60;99.90;;;;;;4956647;28;20482;-89
2022/01/13 00:39:06;;;;;;;0.80;0.80;;;6.70;99.90;;;;;;4964712;28;20921;-89
2022/01/13 00:41:31;;;;;;;1.73;1.57;;;6.60;99.90;;;;;;4955542;28;20451;-89
2022/01/13 00:43:59;;;;;;;0.70;0.60;;;6.70;99.90;;;;;;4963321;28;20441;-89
2022/01/13 00:46:27;;;;;;;0.70;0.60;;;6.70;99.90;;;;;;4957791;28;20193;-89
2022/01/13 00:48:55;;;;;;;0.80;0.80;;;6.70;99.90;;;;;;4967889;28;20464;-89
2022/01/13 00:51:23;;;;;;;0.70;0.70;;;6.70;99.90;;;;;;4960283;28;20961;-88
2022/01/13 00:53:50;;;;;;;10.07;1.10;;;6.70;99.90;;;;;;4955454;28;20536;-90
2022/01/13 00:56:16;;;;;;;0.70;0.70;;;6.70;99.90;;;;;;4957213;28;20571;-88
2022/01/13 00:58:42;;;;;;;0.77;0.70;;;6.70;99.90;;;;;;4956333;28;20957;-89
2022/01/13 01:01:08;;;;;;;0.70;0.60;;;6.70;99.90;;;;;;4955801;28;20484;-88
2022/01/13 01:03:36;;;;;;;0.70;0.60;;;6.70;99.90;;;;;;4940754;28;20189;-88
2022/01/13 01:06:03;;;;;;;2.20;2.10;;;6.70;99.90;;;;;;4951197;28;21159;-88
2022/01/13 01:08:30;;;;;;;1.00;0.90;;;6.70;99.90;;;;;;4959807;28;20502;-89
2022/01/13 01:10:59;;;;;;;0.70;0.70;;;6.70;99.90;;;;;;4958406;28;20496;-89
2022/01/13 01:13:28;;;;;;;0.70;0.70;;;6.70;99.90;;;;;;4938026;28;20479;-89
2022/01/13 01:15:56;;;;;;;0.80;0.70;;;6.60;99.90;;;;;;4963247;28;20971;-88
2022/01/13 01:24:43;;;;;;;0.70;0.60;;;6.70;99.90;;;;;;4958411;28;20490;-90
2022/01/13 01:26:46;;;;;;;0.80;0.73;;;6.70;99.90;;;;;;4944328;28;20480;-89
2022/01/13 01:31:47;;;;;;;0.70;0.60;;;6.70;99.90;;;;;;4956304;28;20446;-89
2022/01/13 01:36:48;;;;;;;0.70;0.60;;;6.60;99.90;;;;;;4958562;28;20941;-89
2022/01/13 01:39:13;;;;;;;0.80;0.73;;;6.70;99.90;;;;;;4957401;28;20450;-88
2022/01/13 01:41:42;;;;;;;1.43;1.33;;;6.60;99.90;;;;;;4946536;28;20511;-89
2022/01/13 01:44:21;;;;;;;1.33;1.23;;;6.60;99.90;;;;;;4969227;28;20255;-89
2022/01/13 01:46:46;;;;;;;0.80;0.70;;;6.70;99.90;;;;;;4945869;28;20452;-88
2022/01/13 01:49:23;;;;;;;3.67;1.33;;;6.70;99.90;;;;;;4968452;28;20502;-89
2022/01/13 01:51:52;;;;;;;0.70;0.60;;;6.70;99.90;;;;;;4963109;28;20288;-88
2022/01/13 01:54:18;;;;;;;0.70;0.60;;;6.70;99.90;;;;;;4966311;28;20448;-88
2022/01/13 01:56:45;;;;;;;1.67;1.03;;;6.70;99.90;;;;;;4961574;28;20969;-88
2022/01/13 01:59:16;;;;;;;19.77;3.00;;;6.70;99.90;;;;;;4946708;28;20650;-88
2022/01/13 02:01:43;;;;;;;0.73;0.60;;;6.60;99.90;;;;;;4952820;28;20450;-88
2022/01/13 02:04:09;;;;;;;0.80;0.60;;;6.60;99.90;;;;;;4954525;28;20438;-88
2022/01/13 02:06:37;;;;;;;0.80;0.70;;;6.70;99.90;;;;;;4966755;28;20520;-88
2022/01/13 02:09:05;;;;;;;1.03;0.93;;;6.60;99.90;;;;;;4960485;28;20540;-88
2022/01/13 02:11:40;;;;;;;0.80;0.80;;;6.60;99.90;;;;;;4965697;28;20941;-88
2022/01/13 02:14:21;;;;;;;0.87;0.80;;;6.50;99.90;;;;;;4957522;28;20444;-88
2022/01/13 02:16:50;;;;;;;1.47;1.37;;;6.50;99.90;;;;;;4956017;28;20464;-88
2022/01/13 02:19:17;;;;;;;0.73;0.63;;;6.50;99.90;;;;;;4984158;28;20440;-88
2022/01/13 02:21:42;;;;;;;1.40;1.30;;;6.40;99.90;;;;;;4944907;28;20778;-88
2022/01/13 02:24:08;;;;;;;0.70;0.60;;;6.50;99.90;;;;;;4962243;28;21049;-88
2022/01/13 02:26:34;;;;;;;0.80;0.70;;;6.40;99.90;;;;;;4958331;28;20234;-88
2022/01/13 02:28:59;;;;;;;2.07;1.87;;;6.40;99.90;;;;;;4970374;28;20245;-88
2022/01/13 02:31:26;;;;;;;0.80;0.70;;;6.40;99.90;;;;;;4968938;28;20194;-88
2022/01/13 02:33:53;;;;;;;0.80;0.70;;;6.40;99.90;;;;;;4956016;28;20695;-87
2022/01/13 02:36:20;;;;;;;1.20;0.97;;;6.40;99.90;;;;;;4959423;28;20512;-88
2022/01/13 02:38:51;;;;;;;0.80;0.80;;;6.40;99.90;;;;;;4950365;28;20446;-88
2022/01/13 02:41:17;;;;;;;0.83;0.80;;;6.40;99.90;;;;;;4938931;28;20446;-88
2022/01/13 02:43:44;;;;;;;0.90;0.90;;;6.40;99.90;;;;;;4953931;28;20577;-87
2022/01/13 02:48:57;;;;;;;0.70;0.60;;;6.40;99.90;;;;;;4954230;28;20444;-88
2022/01/13 02:51:23;;;;;;;2.60;0.97;;;6.40;99.90;;;;;;4954370;28;20868;-88
2022/01/13 02:53:49;;;;;;;1.77;0.90;;;6.40;99.90;;;;;;4959838;28;20477;-88
2022/01/13 02:56:14;;;;;;;1.10;1.00;;;6.50;99.90;;;;;;4946106;28;20237;-88
2022/01/13 02:58:40;;;;;;;0.80;0.70;;;6.50;99.90;;;;;;4962020;28;20190;-88
2022/01/13 03:01:05;;;;;;;0.80;0.80;;;6.50;99.90;;;;;;4964393;28;20186;-87
2022/01/13 03:03:33;;;;;;;0.77;0.70;;;6.50;99.90;;;;;;4966439;28;20198;-89
2022/01/13 03:06:09;;;;;;;0.70;0.60;;;6.50;99.90;;;;;;4947972;28;20213;-88
2022/01/13 03:08:36;;;;;;;0.87;0.83;;;6.50;99.90;;;;;;4964741;28;20448;-88
2022/01/13 03:11:02;;;;;;;1.47;1.37;;;6.50;99.90;;;;;;4953693;28;20454;-86
2022/01/13 03:13:29;;;;;;;2.93;2.73;;;6.50;99.90;;;;;;4941832;28;20453;-88
2022/01/13 03:15:57;;;;;;;0.77;0.70;;;6.50;99.90;;;;;;4945679;28;20489;-88
2022/01/13 03:18:23;;;;;;;1.33;1.10;;;6.50;99.90;;;;;;4959078;28;20441;-89
2022/01/13 03:20:48;;;;;;;0.80;0.60;;;6.50;99.90;;;;;;4973571;28;20455;-87
2022/01/13 03:23:19;;;;;;;1.47;1.37;;;6.50;99.90;;;;;;4967981;28;20186;-88
2022/01/13 03:25:45;;;;;;;0.73;0.60;;;6.50;99.90;;;;;;4955607;28;20238;-88
2022/01/13 03:28:17;;;;;;;0.80;0.70;;;6.50;99.90;;;;;;4959898;28;20453;-88
2022/01/13 03:30:44;;;;;;;0.77;0.60;;;6.50;99.90;;;;;;4961923;28;20928;-88
2022/01/13 03:33:11;;;;;;;0.70;0.60;;;6.50;99.90;;;;;;4943207;28;20831;-88
2022/01/13 03:35:38;;;;;;;0.90;0.90;;;6.50;99.90;;;;;;4951495;28;21065;-87
2022/01/13 03:38:04;;;;;;;0.90;0.90;;;6.50;99.90;;;;;;4977643;28;20441;-88
2022/01/13 03:40:31;;;;;;;1.97;1.83;;;6.50;99.90;;;;;;4967536;28;20935;-88
2022/01/13 03:42:59;;;;;;;2.50;2.30;;;6.50;99.90;;;;;;4947598;28;21115;-88
2022/01/13 03:45:25;;;;;;;1.17;1.07;;;6.50;99.90;;;;;;4958953;28;20453;-88
2022/01/13 03:47:50;;;;;;;1.17;1.10;;;6.50;99.90;;;;;;4958367;28;20500;-88
2022/01/13 03:50:16;;;;;;;0.80;0.67;;;6.50;99.90;;;;;;4953949;28;20210;-88
2022/01/13 03:53:01;;;;;;;1.50;1.40;;;6.50;99.90;;;;;;4963544;28;20190;-88
2022/01/13 03:55:36;;;;;;;0.77;0.63;;;6.40;99.90;;;;;;4948128;28;20229;-88
2022/01/13 03:58:19;;;;;;;0.80;0.60;;;6.40;99.90;;;;;;4973877;28;21253;-88
2022/01/13 04:01:16;;;;;;;0.80;0.70;;;6.40;99.90;;;;;;4985903;28;20461;-87
2022/01/13 04:03:42;;;;;;;0.80;0.63;;;6.40;99.90;;;;;;4965158;28;20583;-88
2022/01/13 04:06:33;;;;;;;1.90;1.10;;;6.40;99.90;;;;;;4967544;28;20524;-88
2022/01/13 04:08:58;;;;;;;0.80;0.67;;;6.40;99.90;;;;;;4958920;28;20277;-88
2022/01/13 04:11:32;;;;;;;2.60;1.23;;;6.40;99.90;;;;;;4946343;28;20520;-88
2022/01/13 04:14:01;;;;;;;1.40;1.30;;;6.40;99.90;;;;;;4936655;28;20204;-87
2022/01/13 04:16:31;;;;;;;1.77;1.67;;;6.50;99.90;;;;;;4963712;28;20964;-87
2022/01/13 04:19:02;;;;;;;0.80;0.70;;;6.50;99.90;;;;;;4952365;28;20451;-87
2022/01/13 04:21:27;;;;;;;0.80;0.60;;;6.50;99.90;;;;;;4950159;28;20461;-87
2022/01/13 04:23:56;;;;;;;0.70;0.60;;;6.50;99.90;;;;;;4956606;28;20528;-87
2022/01/13 04:26:27;;;;;;;0.80;0.60;;;6.50;99.90;;;;;;4951474;28;20210;-88
2022/01/13 04:29:02;;;;;;;1.10;0.80;;;6.50;99.90;;;;;;4953611;28;20468;-87
2022/01/13 04:31:28;;;;;;;0.80;0.70;;;6.40;99.90;;;;;;4963807;28;20443;-88
2022/01/13 04:33:53;;;;;;;0.70;0.60;;;6.40;99.90;;;;;;4953721;28;20558;-88
2022/01/13 04:36:19;;;;;;;0.80;0.60;;;6.40;99.90;;;;;;4959110;28;20237;-88
2022/01/13 04:38:44;;;;;;;1.93;1.83;;;6.30;99.90;;;;;;4970304;28;20186;-88
2022/01/13 04:41:10;;;;;;;0.83;0.83;;;6.30;99.90;;;;;;4951837;28;20225;-88
2022/01/13 04:43:36;;;;;;;0.90;0.90;;;6.40;99.90;;;;;;4942272;28;20193;-89
2022/01/13 04:46:01;;;;;;;0.80;0.70;;;6.30;99.90;;;;;;4969048;28;20309;-88
2022/01/13 04:48:27;;;;;;;3.00;2.03;;;6.30;99.90;;;;;;4965542;28;20200;-87
2022/01/13 04:50:53;;;;;;;0.80;0.70;;;6.30;99.90;;;;;;4982944;28;20240;-88
2022/01/13 04:53:18;;;;;;;3.70;2.60;;;6.30;99.90;;;;;;4941188;28;21990;-87
2022/01/13 04:55:51;;;;;;;1.03;1.03;;;6.30;99.90;;;;;;4950311;28;20288;-87
2022/01/13 04:58:16;;;;;;;1.60;1.50;;;6.30;99.90;;;;;;4952510;28;20294;-88
2022/01/13 05:00:42;;;;;;;1.43;1.27;;;6.30;99.90;;;;;;4961640;28;20538;-88
2022/01/13 05:03:08;;;;;;;0.90;0.90;;;6.30;99.90;;;;;;4961645;28;20458;-88
2022/01/13 05:05:33;;;;;;;3.20;2.93;;;6.30;99.90;;;;;;4967012;28;20455;-88
2022/01/13 05:08:00;;;;;;;3.47;2.90;;;6.20;99.90;;;;;;4955186;28;20532;-88
2022/01/13 05:10:26;;;;;;;1.10;1.00;;;6.20;99.90;;;;;;4971143;28;20324;-87
2022/01/13 05:12:56;;;;;;;0.80;0.80;;;6.30;99.90;;;;;;4959670;28;20527;-88
2022/01/13 05:15:27;;;;;;;1.47;1.37;;;6.30;99.90;;;;;;4959853;28;20214;-87
2022/01/13 05:18:19;;;;;;;0.80;0.60;;;6.30;99.90;;;;;;4957300;28;20448;-88
2022/01/13 05:20:59;;;;;;;1.87;1.10;;;6.30;99.90;;;;;;4957816;28;20440;-88
2022/01/13 05:23:25;;;;;;;2.70;2.60;;;6.30;99.90;;;;;;4954248;28;20456;-87
2022/01/13 05:25:50;;;;;;;1.50;1.40;;;6.30;99.90;;;;;;4964194;28;20823;-88
2022/01/13 05:28:16;;;;;;;1.33;1.23;;;6.30;99.90;;;;;;4968494;28;20185;-88
2022/01/13 05:30:42;;;;;;;0.80;0.70;;;6.40;99.90;;;;;;4963616;28;20274;-87
2022/01/13 05:33:08;;;;;;;0.80;0.70;;;6.40;99.90;;;;;;4965140;28;20452;-87
2022/01/13 05:35:36;;;;;;;0.90;0.90;;;6.40;99.90;;;;;;4964444;28;20499;-87
2022/01/13 05:38:02;;;;;;;0.80;0.70;;;6.40;99.90;;;;;;4971501;28;20253;-88
2022/01/13 05:40:28;;;;;;;0.80;0.70;;;6.40;99.90;;;;;;4957192;28;20480;-88
2022/01/13 05:42:54;;;;;;;0.97;0.90;;;6.40;99.90;;;;;;4968632;28;20472;-87
2022/01/13 05:45:21;;;;;;;3.00;2.80;;;6.40;99.90;;;;;;4966914;28;20242;-88
2022/01/13 05:47:49;;;;;;;0.80;0.70;;;6.50;99.90;;;;;;4968425;28;20253;-87
2022/01/13 05:50:18;;;;;;;0.80;0.60;;;6.50;99.90;;;;;;4971574;28;20437;-87
2022/01/13 05:52:43;;;;;;;0.93;0.83;;;6.50;99.90;;;;;;4940445;28;20938;-88
2022/01/13 05:55:10;;;;;;;1.07;0.97;;;6.50;99.90;;;;;;4957951;28;20504;-88
2022/01/13 05:57:35;;;;;;;0.80;0.60;;;6.60;99.90;;;;;;4945324;28;20189;-88
2022/01/13 06:00:02;;;;;;;0.80;0.70;;;6.60;99.90;;;;;;4957738;28;21077;-87
2022/01/13 06:02:28;;;;;;;0.80;0.60;;;6.60;99.90;;;;;;4941599;28;20194;-87
2022/01/13 06:04:53;;;;;;;0.80;0.70;;;6.60;99.90;;;;;;4951909;28;20739;-89
2022/01/13 06:07:19;;;;;;;3.53;2.30;;;6.60;99.90;;;;;;4989583;28;20252;-87
2022/01/13 06:09:44;;;;;;;0.80;0.60;;;6.70;99.90;;;;;;4957041;28;20225;-88
2022/01/13 06:12:10;;;;;;;1.00;0.90;;;6.70;99.90;;;;;;4957402;28;20183;-88
2022/01/13 06:14:36;;;;;;;0.77;0.60;;;6.70;99.90;;;;;;4943660;28;20202;-87
2022/01/13 06:17:01;;;;;;;0.80;0.70;;;6.60;99.90;;;;;;4944219;28;20310;-88
2022/01/13 06:19:27;;;;;;;0.80;0.70;;;6.70;99.90;;;;;;4951258;28;20241;-88
2022/01/13 06:21:53;;;;;;;0.80;0.60;;;6.60;99.90;;;;;;4977394;28;20204;-87
2022/01/13 06:24:18;;;;;;;1.37;0.90;;;6.60;99.90;;;;;;4977946;28;20438;-88
2022/01/13 06:26:44;;;;;;;0.80;0.70;;;6.70;99.90;;;;;;4979001;28;20241;-88
2022/01/13 06:29:09;;;;;;;1.63;1.53;;;6.60;99.90;;;;;;4954540;28;20642;-90
2022/01/13 06:31:35;;;;;;;0.80;0.70;;;6.60;99.90;;;;;;4976164;28;20284;-91
2022/01/13 06:34:01;;;;;;;0.77;0.63;;;6.60;99.90;;;;;;4963587;28;20200;-87
2022/01/13 06:36:26;;;;;;;0.80;0.70;;;6.60;99.90;;;;;;4954617;28;20221;-88
2022/01/13 06:38:52;;;;;;;1.83;1.73;;;6.60;99.90;;;;;;4964705;28;20708;-88
2022/01/13 06:41:18;;;;;;;0.80;0.80;;;6.60;99.90;;;;;;4971067;28;20658;-87
2022/01/13 06:43:45;;;;;;;1.43;1.20;;;6.60;99.90;;;;;;4940321;28;20270;-86
2022/01/13 06:46:15;;;;;;;1.03;0.93;;;6.60;99.90;;;;;;4949573;28;20460;-87
2022/01/13 06:48:41;;;;;;;0.80;0.60;;;6.60;99.90;;;;;;4972021;28;20433;-89
2022/01/13 06:51:07;;;;;;;0.90;0.70;;;6.60;99.90;;;;;;4954657;28;20817;-88
2022/01/13 06:53:33;;;;;;;0.80;0.70;;;6.70;99.90;;;;;;4972563;28;20440;-88
2022/01/13 06:55:59;;;;;;;0.80;0.70;;;6.70;99.90;;;;;;4963473;28;20234;-88
2022/01/13 06:58:24;;;;;;;0.80;0.70;;;6.70;99.90;;;;;;4954584;28;20186;-88
2022/01/13 07:00:50;;;;;;;2.40;1.57;;;6.70;99.90;;;;;;4954721;28;20213;-87
2022/01/13 07:03:15;;;;;;;0.80;0.60;;;6.80;99.90;;;;;;4945151;28;20559;-88
2022/01/13 07:05:41;;;;;;;0.80;0.60;;;6.80;99.90;;;;;;4957084;28;20181;-88
2022/01/13 07:08:10;;;;;;;0.80;0.80;;;6.80;99.90;;;;;;4955573;28;20186;-89
2022/01/13 07:10:36;;;;;;;0.80;0.60;;;6.80;99.90;;;;;;4972573;28;20661;-88
2022/01/13 07:13:02;;;;;;;0.80;0.80;;;6.80;99.90;;;;;;4967621;28;20452;-87
2022/01/13 07:15:28;;;;;;;1.50;1.40;;;6.80;99.90;;;;;;4970026;28;21123;-87
2022/01/13 07:17:54;;;;;;;0.80;0.60;;;6.80;99.90;;;;;;4972814;28;20209;-88
2022/01/13 07:20:19;;;;;;;1.50;1.40;;;6.80;99.90;;;;;;4954139;28;20833;-88
2022/01/13 07:22:45;;;;;;;0.80;0.60;;;6.80;99.90;;;;;;4972873;28;20236;-88
2022/01/13 07:25:11;;;;;;;0.80;0.60;;;6.80;99.90;;;;;;4971606;28;20662;-88
2022/01/13 07:27:37;;;;;;;2.03;1.93;;;6.80;99.90;;;;;;4948148;28;20930;-88
2022/01/13 07:30:03;;;;;;;0.80;0.67;;;6.80;99.90;;;;;;4955421;28;20436;-87
2022/01/13 07:32:29;;;;;;;1.57;1.47;;;6.80;99.90;;;;;;4967712;28;20444;-88
2022/01/13 07:34:55;;;;;;;0.80;0.70;;;6.80;99.90;;;;;;4966114;28;20477;-88
2022/01/13 07:37:24;;;;;;;1.00;0.90;;;6.90;99.90;;;;;;4986229;28;20252;-87
2022/01/13 07:39:50;;;;;;;0.80;0.70;;;6.80;99.90;;;;;;4973729;28;20237;-87
2022/01/13 07:42:16;;;;;;;1.67;1.57;;;6.80;99.90;;;;;;4954872;28;20449;-88
2022/01/13 07:44:42;;;;;;;1.00;0.87;;;6.80;99.90;;;;;;4966821;28;20818;-86
2022/01/13 07:47:07;;;;;;;0.87;0.80;;;6.80;99.90;;;;;;4956652;28;20448;-87
2022/01/13 07:49:35;;;;;;;0.80;0.70;;;6.80;99.90;;;;;;4968226;28;20433;-86
2022/01/13 07:52:01;;;;;;;0.80;0.60;;;6.80;99.90;;;;;;4964792;28;20193;-86
2022/01/13 07:54:30;;;;;;;0.80;0.70;;;6.90;99.90;;;;;;4962513;28;20447;-86
2022/01/13 07:56:56;;;;;;;1.87;1.77;;;6.80;99.90;;;;;;4968133;28;20456;-85
2022/01/13 07:59:27;;;;;;;0.80;0.63;;;6.90;99.90;;;;;;4944108;29;20975;-86
2022/01/13 08:01:54;;;;;;;0.80;0.70;;;6.90;99.90;;;;;;4938713;28;20453;-86
2022/01/13 08:04:19;;;;;;;1.40;1.03;;;6.90;99.90;;;;;;4971012;28;21013;-85
2022/01/13 08:06:45;;;;;;;0.80;0.70;;;6.90;99.90;;;;;;4975365;28;20530;-86
2022/01/13 08:09:10;;;;;;;1.50;1.40;;;6.90;99.90;;;;;;4957542;28;20237;-86
2022/01/13 08:11:36;;;;;;;0.80;0.60;;;6.90;99.90;;;;;;4970032;28;20201;-85
2022/01/13 08:14:02;;;;;;;0.80;0.70;;;6.90;99.90;;;;;;4940286;28;20201;-84
2022/01/13 08:16:32;;;;;;;2.60;2.40;;;6.90;99.90;;;;;;4966003;28;20488;-85
2022/01/13 08:21:42;;;;;;;0.80;0.60;;;6.90;99.90;;;;;;4971365;28;20508;-85
2022/01/13 08:24:07;;;;;;;1.77;1.67;;;7.00;99.90;;;;;;4963793;28;20444;-84
2022/01/13 08:26:33;;;;;;;0.87;0.87;;;6.90;99.90;;;;;;4968071;28;20332;-84
2022/01/13 08:28:59;;;;;;;1.00;0.90;;;6.90;99.90;;;;;;4962897;28;20208;-84
2022/01/13 08:31:24;;;;;;;1.43;1.03;;;6.90;99.90;;;;;;4950535;28;20228;-84
2022/01/13 08:33:50;;;;;;;1.43;0.90;;;6.90;99.90;;;;;;4969932;28;20198;-84
2022/01/13 08:36:15;;;;;;;0.80;0.80;;;7.00;99.90;;;;;;4971222;28;20209;-85
2022/01/13 08:38:41;;;;;;;1.20;1.10;;;6.90;99.90;;;;;;4976709;28;20189;-84
2022/01/13 08:41:06;;;;;;;0.80;0.77;;;6.90;99.90;;;;;;4969605;28;20213;-84
2022/01/13 08:43:34;;;;;;;0.80;0.60;;;7.00;99.90;;;;;;4987650;28;20189;-85
2022/01/13 08:45:59;;;;;;;0.80;0.60;;;7.00;99.90;;;;;;4992312;28;20185;-84
2022/01/13 08:48:25;;;;;;;1.10;1.00;;;7.00;99.90;;;;;;4958806;28;20440;-84
2022/01/13 08:50:51;;;;;;;0.80;0.60;;;7.00;99.90;;;;;;4958857;28;20674;-85
2022/01/13 08:53:18;;;;;;;0.80;0.70;;;7.00;99.90;;;;;;4965498;28;20197;-84
2022/01/13 08:55:44;;;;;;;0.80;0.70;;;7.00;99.90;;;;;;4955358;28;21110;-85
2022/01/13 08:58:10;;;;;;;0.80;0.60;;;7.00;99.90;;;;;;4941481;28;20453;-85
2022/01/13 09:00:37;;;;;;;0.80;0.67;;;7.00;99.90;;;;;;4978057;28;20444;-84
2022/01/13 09:03:07;;;;;;;0.80;0.60;;;7.00;99.90;;;;;;4956815;28;20194;-87
2022/01/13 09:05:33;;;;;;;3.33;1.47;;;7.00;99.90;;;;;;4979285;28;21105;-84
2022/01/13 09:07:59;;;;;;;0.80;0.70;;;7.00;99.90;;;;;;4980441;28;20458;-85
2022/01/13 09:10:25;;;;;;;1.43;1.07;;;7.00;99.90;;;;;;4973833;28;20444;-84
2022/01/13 09:12:51;;;;;;;0.80;0.70;;;7.00;99.90;;;;;;4959560;28;20536;-85
2022/01/13 09:15:31;;;;;;;0.77;0.60;;;7.00;99.90;;;;;;4956844;28;20209;-85
2022/01/13 09:17:58;;;;;;;0.80;0.60;;;7.00;99.90;;;;;;4962744;28;20185;-85
2022/01/13 09:20:24;;;;;;;1.17;1.07;;;7.10;99.90;;;;;;4985253;28;20480;-85
2022/01/13 09:22:49;;;;;;;3.23;1.60;;;7.10;99.90;;;;;;4967278;28;20469;-87
2022/01/13 09:25:15;;;;;;;0.80;0.70;;;7.10;99.90;;;;;;4970698;28;20190;-84
2022/01/13 09:27:41;;;;;;;0.80;0.60;;;7.10;99.90;;;;;;4969165;28;20288;-85
2022/01/13 09:30:09;;;;;;;0.80;0.70;;;7.10;99.90;;;;;;4974383;28;20201;-87
2022/01/13 09:32:36;;;;;;;2.50;1.10;;;7.20;99.90;;;;;;4966907;28;20478;-86
2022/01/13 09:35:04;;;;;;;0.80;0.60;;;7.20;99.90;;;;;;4956498;28;21001;-86
2022/01/13 09:37:29;;;;;;;0.80;0.60;;;7.20;99.90;;;;;;4957465;28;20540;-86
2022/01/13 09:39:56;;;;;;;1.57;1.13;;;7.20;99.90;;;;;;4962486;28;20446;-86
2022/01/13 09:42:22;;;;;;;3.13;1.00;;;7.20;99.90;;;;;;4951568;28;20185;-87
2022/01/13 09:44:48;;;;;;;0.80;0.70;;;7.20;99.90;;;;;;4961568;28;20452;-85
2022/01/13 09:47:14;;;;;;;0.70;0.60;;;7.20;99.90;;;;;;4968697;28;20205;-86
2022/01/13 09:49:43;;;;;;;0.80;0.70;;;7.20;99.90;;;;;;4966200;28;20449;-86
2022/01/13 09:52:08;;;;;;;0.80;0.60;;;7.30;99.90;;;;;;4958790;28;20499;-86
2022/01/13 09:54:34;;;;;;;0.80;0.60;;;7.30;99.90;;;;;;4959600;28;20941;-88
2022/01/13 09:56:59;;;;;;;4.47;3.03;;;7.30;99.90;;;;;;4950699;28;20202;-88
2022/01/13 09:59:25;;;;;;;0.80;0.70;;;7.30;99.90;;;;;;4955806;28;20631;-88
2022/01/13 10:01:50;;;;;;;0.80;0.73;;;7.40;99.90;;;;;;4971182;28;20559;-89
2022/01/13 10:04:16;;;;;;;0.80;0.60;;;7.40;99.90;;;;;;4973715;28;20193;-87
2022/01/13 10:06:47;;;;;;;11.20;1.47;;;7.40;99.90;;;;;;4955068;28;20187;-86
2022/01/13 10:09:13;;;;;;;0.80;0.67;;;7.40;99.90;;;;;;4954310;28;20193;-87
2022/01/13 10:11:54;;;;;;;0.80;0.60;;;7.50;99.90;;;;;;4983609;28;20533;-87
2022/01/13 10:17:00;;;;;;;0.80;0.60;;;7.50;99.90;;;;;;4960530;28;20537;-86
2022/01/13 10:19:44;;;;;;;0.80;0.70;;;7.50;99.90;;;;;;4973611;28;20441;-86
2022/01/13 10:22:12;;;;;;;0.80;0.60;;;7.50;99.90;;;;;;4971982;28;20499;-86
2022/01/13 10:24:40;;;;;;;0.90;0.80;;;7.50;99.90;;;;;;4959696;28;20447;-88
2022/01/13 10:27:07;;;;;;;0.80;0.70;;;7.50;99.90;;;;;;4970247;28;20540;-87
2022/01/13 10:29:49;;;;;;;1.43;1.33;;;7.60;99.90;;;;;;4961301;28;20434;-87
2022/01/13 10:32:27;;;;;;;0.80;0.60;;;7.60;99.90;;;;;;4963897;28;20448;-86
2022/01/13 10:34:59;;;;;;;1.37;1.27;;;7.50;99.90;;;;;;4972976;28;20472;-88
2022/01/13 10:37:33;;;;;;;0.80;0.70;;;7.50;99.90;;;;;;4954137;28;20457;-88
2022/01/13 10:40:09;;;;;;;1.57;1.03;;;7.50;99.90;;;;;;4952434;28;20437;-88
2022/01/13 10:45:29;;;;;;;0.80;0.60;;;7.50;99.90;;;;;;4969854;28;20441;-88
2022/01/13 10:48:06;;;;;;;0.80;0.67;;;7.40;99.90;;;;;;4949692;28;20460;-88
2022/01/13 10:50:38;;;;;;;0.80;0.70;;;7.50;99.90;;;;;;4967047;28;20441;-88
2022/01/13 10:53:07;;;;;;;0.80;0.70;;;7.50;99.90;;;;;;4968221;28;20941;-87
2022/01/13 10:55:37;;;;;;;0.80;0.60;;;7.50;99.90;;;;;;4970300;28;20477;-87
2022/01/13 10:58:03;;;;;;;0.80;0.60;;;7.50;99.90;;;;;;4952233;28;20464;-86
2022/01/13 11:00:32;;;;;;;0.70;0.60;;;7.60;99.90;;;;;;4945063;28;20442;-88
2022/01/13 11:03:04;;;;;;;1.13;1.03;;;7.60;99.90;;;;;;4952619;28;20499;-87
2022/01/13 11:05:31;;;;;;;6.73;1.43;;;7.60;99.90;;;;;;4969960;28;20945;-88
2022/01/13 11:07:57;;;;;;;0.80;0.60;;;7.70;99.90;;;;;;4984896;28;20461;-88
2022/01/13 11:10:24;;;;;;;0.80;0.70;;;7.70;99.90;;;;;;4959828;28;20536;-87
2022/01/13 11:12:58;;;;;;;1.10;1.00;;;7.70;99.90;;;;;;4968143;28;20444;-87
2022/01/13 11:15:31;;;;;;;0.80;0.60;;;7.70;99.90;;;;;;4947138;28;20584;-87
2022/01/13 11:17:58;;;;;;;1.10;0.93;;;7.70;99.90;;;;;;4939612;28;20436;-88
2022/01/13 11:20:25;;;;;;;0.73;0.60;;;7.70;99.90;;;;;;4958636;28;20449;-89
2022/01/13 11:22:53;;;;;;;1.17;0.80;;;7.70;99.90;;;;;;4970584;28;20437;-88
2022/01/13 11:25:24;;;;;;;0.80;0.70;;;7.70;99.90;;;;;;4953666;28;20476;-87
2022/01/13 11:27:51;;;;;;;0.80;0.70;;;7.80;99.90;;;;;;4980760;28;20553;-87
2022/01/13 11:30:19;;;;;;;0.80;0.70;;;7.80;99.90;;;;;;4959602;28;20457;-87
2022/01/13 11:32:46;;;;;;;0.80;0.60;;;7.80;99.90;;;;;;4948959;28;20965;-87
2022/01/13 11:35:15;;;;;;;9.00;1.47;;;7.80;99.90;;;;;;4967207;28;20476;-88
2022/01/13 11:37:41;;;;;;;0.80;0.60;;;7.80;99.90;;;;;;4965424;28;20469;-86
2022/01/13 11:40:28;;;;;;;0.80;0.60;;;7.80;99.90;;;;;;4950825;28;20548;-85
2022/01/13 11:42:55;;;;;;;0.80;0.60;;;7.80;99.90;;;;;;4963610;28;21064;-87
2022/01/13 11:45:22;;;;;;;0.80;0.70;;;7.80;99.90;;;;;;4972633;28;20447;-89
2022/01/13 11:47:51;;;;;;;0.80;0.60;;;7.80;99.90;;;;;;4956342;28;20499;-87
2022/01/13 11:50:22;;;;;;;1.00;0.90;;;7.80;99.90;;;;;;4963576;28;20449;-86
2022/01/13 11:52:53;;;;;;;0.80;0.60;;;7.80;99.90;;;;;;4972466;28;20449;-88
2022/01/13 11:55:28;;;;;;;0.80;0.60;;;7.80;99.90;;;;;;4954078;28;20564;-88
2022/01/13 11:58:14;;;;;;;0.80;0.60;;;7.80;99.90;;;;;;4952599;28;20471;-87
2022/01/13 12:00:41;;;;;;;0.80;0.60;;;7.80;99.90;;;;;;4970905;28;20437;-88
2022/01/13 12:03:28;;;;;;;0.80;0.63;;;7.80;99.90;;;;;;4969553;28;20473;-88
2022/01/13 12:05:55;;;;;;;1.10;0.87;;;7.80;99.90;;;;;;4963692;28;20443;-88
2022/01/13 12:08:41;;;;;;;1.37;0.93;;;7.80;99.90;;;;;;4975344;28;20439;-88
2022/01/13 12:11:10;;;;;;;0.80;0.70;;;7.80;99.90;;;;;;4946838;28;20480;-88
2022/01/13 12:13:40;;;;;;;0.80;0.60;;;7.80;99.90;;;;;;4968403;28;20469;-88
2022/01/13 12:16:08;;;;;;;0.80;0.70;;;7.70;99.90;;;;;;4953074;28;20480;-89
2022/01/13 12:18:57;;;;;;;0.80;0.70;;;7.70;99.90;;;;;;4949375;28;20819;-88
2022/01/13 12:21:37;;;;;;;0.80;0.60;;;7.80;99.90;;;;;;4951712;28;20791;-88
2022/01/13 12:24:04;;;;;;;0.80;0.60;;;7.70;99.90;;;;;;4953324;28;20436;-87
2022/01/13 12:26:33;;;;;;;0.80;0.67;;;7.80;99.90;;;;;;4946182;28;20516;-89
2022/01/13 12:29:23;;;;;;;0.80;0.60;;;7.80;99.90;;;;;;4963473;28;20496;-87
2022/01/13 12:31:50;;;;;;;0.80;0.60;;;7.80;99.90;;;;;;4973076;28;20979;-86
2022/01/13 12:34:27;;;;;;;1.23;1.13;;;7.80;99.90;;;;;;4962390;28;20836;-88
2022/01/13 12:36:53;;;;;;;0.73;0.60;;;7.70;99.90;;;;;;4943231;28;20566;-87
2022/01/13 12:39:20;;;;;;;2.70;2.50;;;7.80;99.90;;;;;;4951455;28;20966;-88
2022/01/13 12:41:59;;;;;;;0.80;0.60;;;7.80;99.90;;;;;;4968444;28;20190;-88
2022/01/13 12:47:11;;;;;;;0.80;0.60;;;7.80;99.90;;;;;;4932609;28;20541;-87
2022/01/13 12:49:37;;;;;;;1.00;0.90;;;7.80;99.90;;;;;;4951605;28;21004;-90
2022/01/13 12:52:05;;;;;;;0.97;0.87;;;7.80;99.90;;;;;;4965426;28;20449;-88
2022/01/13 12:54:30;;;;;;;1.43;1.33;;;7.80;99.90;;;;;;4960819;28;20461;-87
2022/01/13 12:57:02;;;;;;;0.93;0.80;;;7.80;99.90;;;;;;4963838;28;20881;-89
2022/01/13 12:59:27;;;;;;;0.80;0.60;;;7.80;99.90;;;;;;4958813;28;20195;-87
2022/01/13 13:01:57;;;;;;;0.80;0.60;;;7.80;99.90;;;;;;4963654;28;20635;-87
2022/01/13 13:04:22;;;;;;;0.80;0.60;;;7.80;99.90;;;;;;4963752;28;20189;-87
2022/01/13 13:06:49;;;;;;;0.80;0.60;;;7.80;99.90;;;;;;4963914;28;20510;-88
2022/01/13 13:09:20;;;;;;;0.73;0.60;;;7.70;99.90;;;;;;4945679;28;20597;-88
2022/01/13 13:11:49;;;;;;;1.00;0.90;;;7.70;99.90;;;;;;4950095;28;20481;-88
2022/01/13 13:14:22;;;;;;;0.97;0.87;;;7.70;99.90;;;;;;4970250;28;20441;-88
2022/01/13 13:16:50;;;;;;;0.80;0.73;;;7.70;99.90;;;;;;4952761;28;21101;-88
2022/01/13 13:19:19;;;;;;;1.30;0.90;;;7.70;99.90;;;;;;4971718;28;20430;-88
2022/01/13 13:21:51;;;;;;;0.80;0.60;;;7.70;99.90;;;;;;4968570;28;20596;-88
2022/01/13 13:24:17;;;;;;;0.80;0.70;;;7.70;99.90;;;;;;4959863;28;20826;-88
2022/01/13 13:26:44;;;;;;;2.00;1.90;;;7.70;99.90;;;;;;4943653;28;20493;-88
2022/01/13 13:29:11;;;;;;;0.80;0.63;;;7.70;99.90;;;;;;4955666;28;20516;-86
2022/01/13 13:31:39;;;;;;;0.80;0.60;;;7.70;99.90;;;;;;4949323;28;20958;-87
2022/01/13 13:34:07;;;;;;;0.80;0.70;;;7.70;99.90;;;;;;4934839;29;20529;-86